createdAt,value
2018-11-06T00:00:49.771Z,32.37
2018-11-06T00:03:24.405Z,43.87
2018-11-06T00:05:53.746Z,35.60
2018-11-06T00:08:23.237Z,36.87
2018-11-06T00:10:52.141Z,31.17
2018-11-06T00:13:20.949Z,36.83
2018-11-06T00:15:49.754Z,34.53
2018-11-06T00:18:18.561Z,31.73
2018-11-06T00:20:47.469Z,32.77
2018-11-06T00:23:16.809Z,33.47
2018-11-06T00:25:45.688Z,41.67
2018-11-06T00:28:14.905Z,54.47
2018-11-06T00:30:43.892Z,42.90
2018-11-06T00:33:12.884Z,40.73
2018-11-06T00:35:41.928Z,40.83
2018-11-06T00:38:10.829Z,34.20
2018-11-06T00:40:39.870Z,37.20
2018-11-06T00:43:08.690Z,38.07
2018-11-06T00:45:38.059Z,30.47
2018-11-06T00:48:07.250Z,39.40
2018-11-06T00:50:36.546Z,39.83
2018-11-06T00:53:05.711Z,35.67
2018-11-06T00:55:34.626Z,34.43
2018-11-06T00:58:03.400Z,34.00
2018-11-06T01:00:32.480Z,36.73
2018-11-06T01:03:01.422Z,34.80
2018-11-06T01:05:30.526Z,36.30
2018-11-06T01:07:59.320Z,48.40
2018-11-06T01:10:28.522Z,31.27
2018-11-06T01:12:57.627Z,30.23
2018-11-06T01:15:26.547Z,38.27
2018-11-06T01:17:55.611Z,38.53
2018-11-06T01:20:24.449Z,35.90
2018-11-06T01:22:53.345Z,30.33
2018-11-06T01:25:22.142Z,41.10
2018-11-06T01:27:51.250Z,32.70
2018-11-06T01:30:21.042Z,34.10
2018-11-06T01:32:49.865Z,32.90
2018-11-06T01:35:18.729Z,36.50
2018-11-06T01:37:47.849Z,39.67
2018-11-06T01:40:18.196Z,30.70
2018-11-06T01:42:47.567Z,35.10
2018-11-06T01:45:17.229Z,33.70
2018-11-06T01:47:46.068Z,30.90
2018-11-06T01:50:16.475Z,42.13
2018-11-06T01:52:46.644Z,35.20
2018-11-06T01:55:15.478Z,31.93
2018-11-06T01:57:44.238Z,36.57
2018-11-06T02:00:15.804Z,31.53
2018-11-06T02:02:47.549Z,49.20
2018-11-06T02:05:17.631Z,33.00
2018-11-06T02:07:47.779Z,33.53
2018-11-06T02:10:17.033Z,31.20
2018-11-06T02:12:47.025Z,42.00
2018-11-06T02:15:15.991Z,38.60
2018-11-06T02:17:45.453Z,38.70
2018-11-06T02:20:15.406Z,37.73
2018-11-06T02:22:45.011Z,32.63
2018-11-06T02:25:14.142Z,40.37
2018-11-06T02:27:42.937Z,35.80
2018-11-06T02:30:13.981Z,31.30
2018-11-06T02:32:43.830Z,40.40
2018-11-06T02:35:12.762Z,39.00
2018-11-06T02:37:42.003Z,37.27
2018-11-06T02:40:14.999Z,37.90
2018-11-06T02:42:44.395Z,49.63
2018-11-06T02:45:14.177Z,42.00
2018-11-06T02:47:43.572Z,38.20
2018-11-06T02:50:13.569Z,43.47
2018-11-06T02:52:43.165Z,37.83
2018-11-06T02:55:12.361Z,46.87
2018-11-06T02:57:41.915Z,41.57
2018-11-06T03:00:13.764Z,36.90
2018-11-06T03:02:43.022Z,38.43
2018-11-06T03:05:12.127Z,37.47
2018-11-06T03:07:41.591Z,40.07
2018-11-06T03:10:11.781Z,37.73
2018-11-06T03:12:42.119Z,39.33
2018-11-06T03:15:12.229Z,43.43
2018-11-06T03:17:41.446Z,42.67
2018-11-06T03:20:11.222Z,36.43
2018-11-06T03:22:40.881Z,35.83
2018-11-06T03:25:10.053Z,42.03
2018-11-06T03:27:38.936Z,42.10
2018-11-06T03:30:10.195Z,36.43
2018-11-06T03:32:39.101Z,31.60
2018-11-06T03:35:08.896Z,33.67
2018-11-06T03:37:38.279Z,38.83
2018-11-06T03:40:07.823Z,40.67
2018-11-06T03:42:36.952Z,34.60
2018-11-06T03:45:06.481Z,35.63
2018-11-06T03:47:35.464Z,35.93
2018-11-06T03:50:04.303Z,35.77
2018-11-06T03:52:33.080Z,40.07
2018-11-06T03:55:01.863Z,33.73
2018-11-06T03:57:30.678Z,38.83
2018-11-06T03:59:59.895Z,36.67
2018-11-06T04:02:28.770Z,42.50
2018-11-06T04:04:57.718Z,37.83
2018-11-06T04:07:26.666Z,39.03
2018-11-06T04:09:55.551Z,39.37
2018-11-06T04:12:24.354Z,48.27
2018-11-06T04:14:53.149Z,38.77
2018-11-06T04:17:22.019Z,34.43
2018-11-06T04:19:51.114Z,40.20
2018-11-06T04:22:19.993Z,41.37
2018-11-06T04:24:48.878Z,43.03
2018-11-06T04:27:17.775Z,39.37
2018-11-06T04:29:46.627Z,44.23
2018-11-06T04:32:15.590Z,39.47
2018-11-06T04:34:44.467Z,42.13
2018-11-06T04:37:13.974Z,44.77
2018-11-06T04:39:42.838Z,39.27
2018-11-06T04:42:11.664Z,35.97
2018-11-06T04:44:40.558Z,40.20
2018-11-06T04:47:09.394Z,37.40
2018-11-06T04:49:38.915Z,50.37
2018-11-06T04:52:07.733Z,39.30
2018-11-06T04:54:36.582Z,43.30
2018-11-06T04:57:05.809Z,59.30
2018-11-06T04:59:34.642Z,65.30
2018-11-06T05:02:03.745Z,62.63
2018-11-06T05:04:32.606Z,55.30
2018-11-06T05:07:01.656Z,92.60
2018-11-06T05:09:37.262Z,62.40
2018-11-06T05:12:06.420Z,55.50
2018-11-06T05:14:35.535Z,52.77
2018-11-06T05:17:04.693Z,47.57
2018-11-06T05:19:33.807Z,50.40
2018-11-06T05:22:02.760Z,48.07
2018-11-06T05:24:31.605Z,51.47
2018-11-06T05:27:00.507Z,59.33
2018-11-06T05:29:29.288Z,43.40
2018-11-06T05:31:58.201Z,49.70
2018-11-06T05:34:27.438Z,50.40
2018-11-06T05:36:56.293Z,45.27
2018-11-06T05:39:25.166Z,44.37
2018-11-06T05:41:54.880Z,41.60
2018-11-06T05:44:23.974Z,46.37
2018-11-06T05:46:52.814Z,51.80
2018-11-06T05:49:21.749Z,44.80
2018-11-06T05:51:50.631Z,49.80
2018-11-06T05:54:19.551Z,57.77
2018-11-06T05:56:48.365Z,48.93
2018-11-06T05:59:17.283Z,44.30
2018-11-06T06:01:46.173Z,44.70
2018-11-06T06:04:15.094Z,53.67
2018-11-06T06:06:43.933Z,45.33
2018-11-06T06:09:12.785Z,42.23
2018-11-06T06:11:41.682Z,42.03
2018-11-06T06:14:11.142Z,72.97
2018-11-06T06:16:40.026Z,53.10
2018-11-06T06:19:08.887Z,50.17
2018-11-06T06:21:39.163Z,58.90
2018-11-06T06:24:08.029Z,50.73
2018-11-06T06:26:36.950Z,71.50
2018-11-06T06:29:06.271Z,52.90
2018-11-06T06:31:35.151Z,49.50
2018-11-06T06:34:04.319Z,57.43
2018-11-06T06:36:33.186Z,65.10
2018-11-06T06:39:02.160Z,69.90
2018-11-06T06:41:31.306Z,59.73
2018-11-06T06:44:00.235Z,68.23
2018-11-06T06:46:29.155Z,80.87
2018-11-06T06:48:58.239Z,53.23
2018-11-06T06:51:27.142Z,67.67
2018-11-06T06:53:56.003Z,58.63
2018-11-06T06:56:24.874Z,52.83
2018-11-06T06:58:55.240Z,53.00
2018-11-06T07:01:25.854Z,55.30
2018-11-06T07:03:56.416Z,45.20
2018-11-06T07:06:27.291Z,48.37
2018-11-06T07:08:57.397Z,56.37
2018-11-06T07:11:27.655Z,47.40
2018-11-06T07:13:57.857Z,46.00
2018-11-06T07:16:31.311Z,62.87
2018-11-06T07:19:01.612Z,55.70
2018-11-06T07:21:32.833Z,74.87
2018-11-06T07:24:03.596Z,58.20
2018-11-06T07:26:32.938Z,65.97
2018-11-06T07:29:03.950Z,55.03
2018-11-06T07:31:33.309Z,55.90
2018-11-06T07:34:04.540Z,56.70
2018-11-06T07:36:33.428Z,56.03
2018-11-06T07:39:02.446Z,60.90
2018-11-06T07:41:31.413Z,55.83
2018-11-06T07:44:00.268Z,61.73
2018-11-06T07:46:29.414Z,59.47
2018-11-06T07:48:58.191Z,56.50
2018-11-06T07:51:26.991Z,71.97
2018-11-06T07:53:56.048Z,68.87
2018-11-06T07:56:24.869Z,60.10
2018-11-06T07:58:53.848Z,58.20
2018-11-06T08:01:23.046Z,57.87
2018-11-06T08:03:51.846Z,59.63
2018-11-06T08:06:20.767Z,61.53
2018-11-06T08:08:49.588Z,54.87
2018-11-06T08:11:18.394Z,63.97
2018-11-06T08:13:47.477Z,53.17
2018-11-06T08:16:16.299Z,61.90
2018-11-06T08:18:45.383Z,57.53
2018-11-06T08:21:14.474Z,66.77
2018-11-06T08:23:43.348Z,57.17
2018-11-06T08:26:12.591Z,54.93
2018-11-06T08:28:41.599Z,63.43
2018-11-06T08:31:10.777Z,66.80
2018-11-06T08:33:39.486Z,60.43
2018-11-06T08:36:08.307Z,61.30
2018-11-06T08:38:37.175Z,59.20
2018-11-06T08:41:06.470Z,58.87
2018-11-06T08:43:35.323Z,61.93
2018-11-06T08:46:04.174Z,56.57
2018-11-06T08:48:33.013Z,60.77
2018-11-06T08:51:02.193Z,65.87
2018-11-06T08:53:31.096Z,65.33
2018-11-06T08:56:00.721Z,60.67
2018-11-06T08:58:29.568Z,63.97
2018-11-06T09:00:58.501Z,53.10
2018-11-06T09:03:27.349Z,70.70
2018-11-06T09:05:56.164Z,58.37
2018-11-06T09:08:25.035Z,59.20
2018-11-06T09:10:54.052Z,59.13
2018-11-06T09:13:22.993Z,66.83
2018-11-06T09:15:51.969Z,62.17
2018-11-06T09:18:20.985Z,73.63
2018-11-06T09:20:49.885Z,60.90
2018-11-06T09:23:18.786Z,58.30
2018-11-06T09:25:47.833Z,60.83
2018-11-06T09:28:16.703Z,55.03
2018-11-06T09:30:45.522Z,57.47
2018-11-06T09:33:14.592Z,70.73
2018-11-06T09:35:43.880Z,63.17
2018-11-06T09:38:12.718Z,63.23
2018-11-06T09:40:41.513Z,54.70
2018-11-06T09:43:10.302Z,54.20
2018-11-06T09:45:39.197Z,59.70
2018-11-06T09:48:08.112Z,52.93
2018-11-06T09:50:36.974Z,57.13
2018-11-06T09:53:06.710Z,57.93
2018-11-06T09:55:35.962Z,59.23
2018-11-06T09:58:06.206Z,53.57
2018-11-06T10:00:35.049Z,55.60
2018-11-06T10:03:03.912Z,64.33
2018-11-06T10:05:32.748Z,60.63
2018-11-06T10:08:01.962Z,54.57
2018-11-06T10:10:30.801Z,50.73
2018-11-06T10:12:59.863Z,63.67
2018-11-06T10:15:29.096Z,49.77
2018-11-06T10:17:58.013Z,60.80
2018-11-06T10:20:26.860Z,60.53
2018-11-06T10:22:55.776Z,67.40
2018-11-06T10:25:24.727Z,56.90
2018-11-06T10:27:53.588Z,61.23
2018-11-06T10:30:22.911Z,50.97
2018-11-06T10:32:51.769Z,62.77
2018-11-06T10:35:20.542Z,48.90
2018-11-06T10:37:49.389Z,53.87
2018-11-06T10:40:19.713Z,54.83
2018-11-06T10:42:48.889Z,57.83
2018-11-06T10:45:18.392Z,49.87
2018-11-06T10:47:47.548Z,52.63
2018-11-06T10:50:17.077Z,56.33
2018-11-06T10:52:47.035Z,54.13
2018-11-06T10:55:15.874Z,55.43
2018-11-06T10:57:44.635Z,53.37
2018-11-06T11:00:19.422Z,71.67
2018-11-06T11:02:53.460Z,48.63
2018-11-06T11:05:24.468Z,55.47
2018-11-06T11:07:53.621Z,60.57
2018-11-06T11:10:22.444Z,48.73
2018-11-06T11:12:51.585Z,50.77
2018-11-06T11:15:20.421Z,51.00
2018-11-06T11:17:49.252Z,48.53
2018-11-06T11:20:18.143Z,50.27
2018-11-06T11:22:46.894Z,51.87
2018-11-06T11:25:16.750Z,52.63
2018-11-06T11:27:46.552Z,54.10
2018-11-06T11:30:16.365Z,48.60
2018-11-06T11:32:46.897Z,49.40
2018-11-06T11:35:15.875Z,49.40
2018-11-06T11:37:44.908Z,51.40
2018-11-06T11:40:14.892Z,49.77
2018-11-06T11:42:44.534Z,42.57
2018-11-06T11:45:14.289Z,47.30
2018-11-06T11:47:43.440Z,48.77
2018-11-06T11:50:13.409Z,44.83
2018-11-06T11:52:49.005Z,46.83
2018-11-06T11:55:17.877Z,41.23
2018-11-06T11:57:46.816Z,43.30
2018-11-06T12:00:17.584Z,39.00
2018-11-06T12:02:46.743Z,44.03
2018-11-06T12:05:15.565Z,40.40
2018-11-06T12:07:44.495Z,40.90
2018-11-06T12:10:13.844Z,48.93
2018-11-06T12:12:42.812Z,47.20
2018-11-06T12:15:14.096Z,46.17
2018-11-06T12:17:43.866Z,46.63
2018-11-06T12:20:13.316Z,57.10
2018-11-06T12:22:42.672Z,61.50
2018-11-06T12:25:12.172Z,51.70
2018-11-06T12:27:40.835Z,48.60
2018-11-06T12:30:11.833Z,50.03
2018-11-06T12:32:41.600Z,48.87
2018-11-06T12:35:11.845Z,65.40
2018-11-06T12:37:41.267Z,55.97
2018-11-06T12:40:11.316Z,54.47
2018-11-06T12:42:40.665Z,44.30
2018-11-06T12:45:12.347Z,49.40
2018-11-06T12:47:41.737Z,58.50
2018-11-06T12:50:10.805Z,43.93
2018-11-06T12:52:40.009Z,43.83
2018-11-06T12:55:10.573Z,44.17
2018-11-06T12:57:39.558Z,46.57
2018-11-06T13:00:11.251Z,44.40
2018-11-06T13:02:40.419Z,42.60
2018-11-06T13:05:09.598Z,42.77
2018-11-06T13:07:39.875Z,40.07
2018-11-06T13:10:09.245Z,51.07
2018-11-06T13:12:38.179Z,42.40
2018-11-06T13:15:07.781Z,45.47
2018-11-06T13:17:37.381Z,39.30
2018-11-06T13:20:08.238Z,44.70
2018-11-06T13:22:37.489Z,46.33
2018-11-06T13:25:07.240Z,44.67
2018-11-06T13:27:36.930Z,47.60
2018-11-06T13:30:07.507Z,46.83
2018-11-06T13:32:36.324Z,52.40
2018-11-06T13:35:05.875Z,44.67
2018-11-06T13:37:35.210Z,43.67
2018-11-06T13:40:04.968Z,37.03
2018-11-06T13:42:34.016Z,42.00
2018-11-06T13:45:03.373Z,41.37
2018-11-06T13:47:32.013Z,43.10
2018-11-06T13:50:00.938Z,45.67
2018-11-06T13:52:29.815Z,41.60
2018-11-06T13:54:58.680Z,45.60
2018-11-06T13:57:27.493Z,50.40
2018-11-06T13:59:56.273Z,46.63
2018-11-06T14:02:25.263Z,40.80
2018-11-06T14:04:54.111Z,53.30
2018-11-06T14:07:23.018Z,51.13
2018-11-06T14:09:52.174Z,39.03
2018-11-06T14:12:21.284Z,45.70
2018-11-06T14:14:50.136Z,45.43
2018-11-06T14:17:19.021Z,43.90
2018-11-06T14:19:47.896Z,47.97
2018-11-06T14:22:17.127Z,44.07
2018-11-06T14:24:45.912Z,50.57
2018-11-06T14:27:14.937Z,48.70
2018-11-06T14:29:43.768Z,55.00
2018-11-06T14:32:12.618Z,49.17
2018-11-06T14:34:41.760Z,43.90
2018-11-06T14:37:10.776Z,48.90
2018-11-06T14:39:39.693Z,48.03
2018-11-06T14:42:08.607Z,48.50
2018-11-06T14:44:37.778Z,44.27
2018-11-06T14:47:07.073Z,47.50
2018-11-06T14:49:36.181Z,46.47
2018-11-06T14:52:05.485Z,52.83
2018-11-06T14:54:34.883Z,52.90
2018-11-06T14:57:03.839Z,50.53
2018-11-06T14:59:32.872Z,48.70
2018-11-06T15:02:02.189Z,44.73
2018-11-06T15:04:31.252Z,46.40
2018-11-06T15:07:00.154Z,51.77
2018-11-06T15:09:29.125Z,47.43
2018-11-06T15:11:59.030Z,51.80
2018-11-06T15:14:27.995Z,49.30
2018-11-06T15:16:56.901Z,46.07
2018-11-06T15:19:25.939Z,55.30
2018-11-06T15:21:55.603Z,54.13
2018-11-06T15:24:24.856Z,45.90
2018-11-06T15:26:53.852Z,49.73
2018-11-06T15:29:22.871Z,52.80
2018-11-06T15:31:51.985Z,57.00
2018-11-06T15:34:20.912Z,58.47
2018-11-06T15:36:50.945Z,48.60
2018-11-06T15:39:19.859Z,48.23
2018-11-06T15:41:48.852Z,51.93
2018-11-06T15:44:17.501Z,78.00
2018-11-06T15:46:46.453Z,55.33
2018-11-06T15:49:15.414Z,50.67
2018-11-06T15:51:44.226Z,56.17
2018-11-06T15:54:13.244Z,49.37
2018-11-06T15:56:42.299Z,57.20
2018-11-06T15:59:11.090Z,96.33
2018-11-06T16:01:40.053Z,82.20
2018-11-06T16:04:09.060Z,59.30
2018-11-06T16:06:38.001Z,53.60
2018-11-06T16:09:07.754Z,59.10
2018-11-06T16:11:36.703Z,53.10
2018-11-06T16:14:05.627Z,61.10
2018-11-06T16:16:34.576Z,49.60
2018-11-06T16:19:03.758Z,51.07
2018-11-06T16:21:32.635Z,54.30
2018-11-06T16:24:01.618Z,49.50
2018-11-06T16:26:30.595Z,55.07
2018-11-06T16:28:59.626Z,58.47
2018-11-06T16:31:28.423Z,53.90
2018-11-06T16:33:57.628Z,54.83
2018-11-06T16:36:26.681Z,55.77
2018-11-06T16:38:55.973Z,54.33
2018-11-06T16:41:24.948Z,51.17
2018-11-06T16:43:53.899Z,54.80
2018-11-06T16:46:22.973Z,56.20
2018-11-06T16:48:52.038Z,56.13
2018-11-06T16:51:20.877Z,58.23
2018-11-06T16:53:49.867Z,55.37
2018-11-06T16:56:18.795Z,52.77
2018-11-06T16:58:47.892Z,50.80
2018-11-06T17:01:16.895Z,57.13
2018-11-06T17:03:45.781Z,51.87
2018-11-06T17:06:19.849Z,63.10
2018-11-06T17:08:48.834Z,57.40
2018-11-06T17:11:17.953Z,53.60
2018-11-06T17:13:46.793Z,54.13
2018-11-06T17:16:15.653Z,53.57
2018-11-06T17:18:44.540Z,54.20
2018-11-06T17:21:13.608Z,52.27
2018-11-06T17:23:42.891Z,52.23
2018-11-06T17:26:11.756Z,51.53
2018-11-06T17:28:40.640Z,51.63
2018-11-06T17:31:09.719Z,49.10
2018-11-06T17:33:38.736Z,58.27
2018-11-06T17:36:08.065Z,54.17
2018-11-06T17:38:36.940Z,54.00
2018-11-06T17:41:06.811Z,62.23
2018-11-06T17:43:35.830Z,57.40
2018-11-06T17:46:04.987Z,65.77
2018-11-06T17:48:33.870Z,47.97
2018-11-06T17:51:02.708Z,60.10
2018-11-06T17:53:31.677Z,51.30
2018-11-06T17:56:00.536Z,60.33
2018-11-06T17:58:29.788Z,51.50
2018-11-06T18:00:58.753Z,52.57
2018-11-06T18:03:27.805Z,48.33
2018-11-06T18:05:56.947Z,52.87
2018-11-06T18:08:25.871Z,49.87
2018-11-06T18:10:54.860Z,56.10
2018-11-06T18:13:24.744Z,51.90
2018-11-06T18:15:53.699Z,54.73
2018-11-06T18:18:22.747Z,67.13
2018-11-06T18:20:51.678Z,55.60
2018-11-06T18:23:20.665Z,56.00
2018-11-06T18:25:49.834Z,54.17
2018-11-06T18:28:18.599Z,58.70
2018-11-06T18:30:47.633Z,50.70
2018-11-06T18:33:16.467Z,51.53
2018-11-06T18:35:45.494Z,55.83
2018-11-06T18:38:14.407Z,54.70
2018-11-06T18:40:43.441Z,50.43
2018-11-06T18:43:13.154Z,56.57
2018-11-06T18:45:42.106Z,52.13
2018-11-06T18:48:11.222Z,57.10
2018-11-06T18:50:40.185Z,50.10
2018-11-06T18:53:09.192Z,49.67
2018-11-06T18:55:38.561Z,59.80
2018-11-06T18:58:07.562Z,49.00
2018-11-06T19:00:36.452Z,47.53
2018-11-06T19:03:05.881Z,64.00
2018-11-06T19:05:34.743Z,60.63
2018-11-06T19:08:03.771Z,47.17
2018-11-06T19:10:33.632Z,54.63
2018-11-06T19:13:02.457Z,52.00
2018-11-06T19:15:31.521Z,50.60
2018-11-06T19:18:00.417Z,56.30
2018-11-06T19:20:29.355Z,51.10
2018-11-06T19:22:58.246Z,54.40
2018-11-06T19:25:27.509Z,56.37
2018-11-06T19:27:56.629Z,57.53
2018-11-06T19:30:25.610Z,64.43
2018-11-06T19:32:54.641Z,52.03
2018-11-06T19:35:23.526Z,54.33
2018-11-06T19:37:52.463Z,55.90
2018-11-06T19:40:21.340Z,56.53
2018-11-06T19:42:50.298Z,63.87
2018-11-06T19:45:19.205Z,60.03
2018-11-06T19:47:48.115Z,59.73
2018-11-06T19:50:18.467Z,53.43
2018-11-06T19:52:47.836Z,50.23
2018-11-06T19:55:17.722Z,50.23
2018-11-06T19:57:46.813Z,55.53
2018-11-06T20:00:20.182Z,60.13
2018-11-06T20:02:50.676Z,51.93
2018-11-06T20:05:20.058Z,53.70
2018-11-06T20:07:50.196Z,58.73
2018-11-06T20:10:20.426Z,60.00
2018-11-06T20:12:50.535Z,64.57
2018-11-06T20:15:19.810Z,60.27
2018-11-06T20:17:49.025Z,56.03
2018-11-06T20:20:20.604Z,63.27
2018-11-06T20:22:49.519Z,67.13
2018-11-06T20:25:18.510Z,66.80
2018-11-06T20:27:47.646Z,68.03
2018-11-06T20:30:19.346Z,60.43
2018-11-06T20:32:49.046Z,59.07
2018-11-06T20:35:18.301Z,57.10
2018-11-06T20:37:47.745Z,56.17
2018-11-06T20:40:20.586Z,57.80
2018-11-06T20:42:49.663Z,59.13
2018-11-06T20:45:19.432Z,52.40
2018-11-06T20:47:48.444Z,56.33
2018-11-06T20:50:20.168Z,58.73
2018-11-06T20:52:49.663Z,60.50
2018-11-06T20:55:19.353Z,56.93
2018-11-06T20:57:48.263Z,58.33
2018-11-06T21:00:26.072Z,56.03
2018-11-06T21:02:55.948Z,64.70
2018-11-06T21:05:24.981Z,60.03
2018-11-06T21:07:54.741Z,58.23
2018-11-06T21:10:24.991Z,57.60
2018-11-06T21:12:53.826Z,59.50
2018-11-06T21:15:22.912Z,63.40
2018-11-06T21:17:52.303Z,61.10
2018-11-06T21:20:21.292Z,62.00
2018-11-06T21:22:50.430Z,59.47
2018-11-06T21:25:19.357Z,64.10
2018-11-06T21:27:48.442Z,60.70
2018-11-06T21:30:18.797Z,59.37
2018-11-06T21:32:48.851Z,59.63
2018-11-06T21:35:18.462Z,63.50
2018-11-06T21:37:47.380Z,64.30
2018-11-06T21:40:18.317Z,60.93
2018-11-06T21:42:48.078Z,67.20
2018-11-06T21:45:17.833Z,60.93
2018-11-06T21:47:47.428Z,85.53
2018-11-06T21:50:17.163Z,68.50
2018-11-06T21:52:46.043Z,59.60
2018-11-06T21:55:16.160Z,57.90
2018-11-06T21:57:45.025Z,57.00
2018-11-06T22:00:16.405Z,55.73
2018-11-06T22:02:45.558Z,54.43
2018-11-06T22:05:15.582Z,59.03
2018-11-06T22:07:44.669Z,51.83
2018-11-06T22:10:19.086Z,68.40
2018-11-06T22:12:48.195Z,60.73
2018-11-06T22:15:18.152Z,64.50
2018-11-06T22:17:47.722Z,66.60
2018-11-06T22:20:17.826Z,59.23
2018-11-06T22:22:47.333Z,65.53
2018-11-06T22:25:16.337Z,55.03
2018-11-06T22:27:45.574Z,65.90
2018-11-06T22:30:15.460Z,54.07
2018-11-06T22:32:45.421Z,84.80
2018-11-06T22:35:15.384Z,63.97
2018-11-06T22:37:44.242Z,56.13
2018-11-06T22:40:14.435Z,59.33
2018-11-06T22:42:43.638Z,53.60
2018-11-06T22:45:13.832Z,59.47
2018-11-06T22:47:43.125Z,49.63
2018-11-06T22:50:14.647Z,52.10
2018-11-06T22:52:43.949Z,51.07
2018-11-06T22:55:13.118Z,59.63
2018-11-06T22:57:42.144Z,60.93
2018-11-06T23:00:14.284Z,54.60
2018-11-06T23:02:44.431Z,59.17
2018-11-06T23:05:13.736Z,61.73
2018-11-06T23:07:47.603Z,56.70
2018-11-06T23:10:16.419Z,61.80
2018-11-06T23:12:45.304Z,49.50
2018-11-06T23:15:14.235Z,55.40
2018-11-06T23:17:43.090Z,50.63
2018-11-06T23:20:11.882Z,50.27
2018-11-06T23:22:40.832Z,59.40
2018-11-06T23:25:09.764Z,47.37
2018-11-06T23:27:38.557Z,59.63
2018-11-06T23:30:10.227Z,51.87
2018-11-06T23:32:39.110Z,64.93
2018-11-06T23:35:08.004Z,62.40
2018-11-06T23:37:36.893Z,59.90
2018-11-06T23:40:05.938Z,55.03
2018-11-06T23:42:35.118Z,58.20
2018-11-06T23:45:04.530Z,52.60
2018-11-06T23:47:33.898Z,54.37
2018-11-06T23:50:02.830Z,55.37
2018-11-06T23:52:32.087Z,53.60
2018-11-06T23:55:00.983Z,74.80
2018-11-06T23:57:30.696Z,59.93
